createdAt,value
2018-05-14T00:00:28.185Z,45.97
2018-05-14T00:05:29.911Z,49.00
2018-05-14T00:10:32.210Z,41.03
2018-05-14T00:15:33.802Z,42.80
2018-05-14T00:20:35.334Z,37.30
2018-05-14T00:25:37.794Z,34.43
2018-05-14T00:30:39.327Z,32.87
2018-05-14T00:35:40.846Z,38.50
2018-05-14T00:40:42.647Z,33.47
2018-05-14T00:45:44.132Z,31.43
2018-05-14T00:50:46.049Z,38.53
2018-05-14T00:55:47.943Z,27.20
2018-05-14T01:00:49.509Z,27.40
2018-05-14T01:05:51.045Z,26.00
2018-05-14T01:10:52.599Z,29.50
2018-05-14T01:15:54.429Z,32.13
2018-05-14T01:20:56.892Z,38.10
2018-05-14T01:25:59.242Z,22.17
2018-05-14T01:31:00.880Z,26.10
2018-05-14T01:36:03.249Z,25.03
2018-05-14T01:41:04.815Z,29.33
2018-05-14T01:46:06.338Z,30.13
2018-05-14T01:51:08.107Z,26.90
2018-05-14T01:56:09.751Z,23.60
2018-05-14T02:01:12.135Z,23.83
2018-05-14T02:06:14.556Z,22.50
2018-05-14T02:11:16.087Z,19.60
2018-05-14T02:16:18.351Z,21.13
2018-05-14T02:21:19.897Z,22.57
2018-05-14T02:26:21.634Z,19.13
2018-05-14T02:31:23.463Z,20.30
2018-05-14T02:36:25.267Z,21.70
2018-05-14T02:41:27.776Z,23.53
2018-05-14T02:46:29.535Z,27.10
2018-05-14T02:51:31.922Z,24.40
2018-05-14T02:56:34.513Z,22.30
2018-05-14T03:01:36.805Z,22.50
2018-05-14T03:06:38.576Z,29.17
2018-05-14T03:11:41.066Z,28.30
2018-05-14T03:16:43.477Z,28.23
2018-05-14T03:21:45.240Z,25.43
2018-05-14T03:26:46.788Z,41.20
2018-05-14T03:31:49.028Z,43.50
2018-05-14T03:36:50.671Z,44.70
2018-05-14T03:41:52.427Z,41.23
2018-05-14T03:46:54.919Z,42.40
2018-05-14T03:51:56.891Z,42.53
2018-05-14T03:56:59.702Z,35.73
2018-05-14T04:02:28.656Z,35.63
2018-05-14T04:07:30.860Z,36.40
2018-05-14T04:12:32.385Z,38.73
2018-05-14T04:17:35.527Z,42.80
2018-05-14T04:22:37.086Z,44.20
2018-05-14T04:27:38.908Z,35.80
2018-05-14T04:32:40.607Z,41.70
2018-05-14T04:37:42.338Z,39.90
2018-05-14T04:42:44.748Z,38.30
2018-05-14T04:47:46.310Z,35.33
2018-05-14T04:52:48.079Z,50.10
2018-05-14T04:57:49.931Z,46.97
2018-05-14T05:02:51.737Z,43.03
2018-05-14T05:07:53.488Z,43.60
2018-05-14T05:12:56.002Z,44.47
2018-05-14T05:17:57.759Z,45.83
2018-05-14T05:23:00.265Z,38.13
2018-05-14T05:28:01.819Z,44.37
2018-05-14T05:33:04.519Z,38.80
2018-05-14T05:38:06.192Z,47.20
2018-05-14T05:43:07.717Z,43.90
2018-05-14T05:48:09.309Z,42.37
2018-05-14T05:53:11.575Z,41.10
2018-05-14T05:58:13.495Z,41.97
2018-05-14T06:03:15.039Z,47.07
2018-05-14T06:08:17.543Z,47.37
2018-05-14T06:13:19.835Z,44.67
2018-05-14T06:18:21.347Z,44.37
2018-05-14T06:23:22.943Z,47.20
2018-05-14T06:28:24.515Z,43.73
2018-05-14T06:33:26.100Z,49.03
2018-05-14T06:38:28.390Z,45.43
2018-05-14T06:43:30.672Z,46.50
2018-05-14T06:48:33.013Z,43.57
2018-05-14T06:53:34.743Z,34.73
2018-05-14T06:58:36.331Z,43.77
2018-05-14T07:03:37.925Z,41.97
2018-05-14T07:08:39.453Z,37.80
2018-05-14T07:13:41.231Z,35.37
2018-05-14T07:18:42.759Z,37.37
2018-05-14T07:23:44.244Z,37.63
2018-05-14T07:28:46.667Z,38.93
2018-05-14T07:33:48.432Z,38.40
2018-05-14T07:38:50.186Z,38.30
2018-05-14T07:43:52.259Z,40.17
2018-05-14T07:48:55.159Z,41.80
2018-05-14T07:53:57.454Z,40.10
2018-05-14T07:58:59.191Z,42.47
2018-05-14T08:04:00.748Z,43.53
2018-05-14T08:09:02.310Z,36.93
2018-05-14T08:14:04.141Z,40.03
2018-05-14T08:19:05.684Z,38.93
2018-05-14T08:24:07.304Z,38.90
2018-05-14T08:29:09.042Z,36.70
2018-05-14T08:34:11.599Z,43.00
2018-05-14T08:39:13.133Z,37.60
2018-05-14T08:44:14.650Z,37.37
2018-05-14T08:49:16.157Z,38.40
2018-05-14T08:54:17.913Z,34.50
2018-05-14T08:59:19.480Z,35.27
2018-05-14T09:04:21.956Z,36.47
2018-05-14T09:09:24.295Z,36.23
2018-05-14T09:14:25.931Z,34.40
2018-05-14T09:19:28.362Z,46.50
2018-05-14T09:24:29.766Z,43.90
2018-05-14T09:29:32.239Z,38.50
2018-05-14T09:34:33.834Z,38.37
2018-05-14T09:39:36.099Z,39.43
2018-05-14T09:44:37.946Z,52.00
2018-05-14T09:49:39.570Z,33.50
2018-05-14T09:54:42.051Z,38.47
2018-05-14T09:59:44.413Z,46.80
2018-05-14T10:04:46.030Z,36.83
2018-05-14T10:09:47.812Z,36.87
2018-05-14T10:14:49.698Z,39.10
2018-05-14T10:19:51.435Z,42.77
2018-05-14T10:24:53.723Z,37.53
2018-05-14T10:29:56.015Z,33.27
2018-05-14T10:34:58.350Z,34.33
2018-05-14T10:39:59.919Z,25.67
2018-05-14T10:45:01.641Z,26.07
2018-05-14T10:50:04.172Z,27.70
2018-05-14T10:55:05.747Z,26.23
2018-05-14T11:00:07.608Z,24.10
2018-05-14T11:05:09.208Z,33.20
2018-05-14T11:10:10.929Z,27.67
2018-05-14T11:15:12.505Z,20.33
2018-05-14T11:20:14.582Z,21.97
2018-05-14T11:25:16.371Z,27.13
2018-05-14T11:30:18.069Z,26.17
2018-05-14T11:35:19.831Z,19.03
2018-05-14T11:40:21.568Z,19.50
2018-05-14T11:45:23.329Z,21.00
2018-05-14T11:50:25.873Z,20.70
2018-05-14T11:55:27.654Z,21.23
2018-05-14T12:00:29.584Z,30.60
2018-05-14T12:05:31.169Z,24.27
2018-05-14T12:10:32.923Z,26.33
2018-05-14T12:15:34.874Z,22.90
2018-05-14T12:20:36.475Z,22.47
2018-05-14T12:25:45.351Z,27.97
2018-05-14T12:30:46.856Z,27.00
2018-05-14T12:35:49.405Z,29.37
2018-05-14T12:40:51.150Z,29.20
2018-05-14T12:45:52.746Z,24.27
2018-05-14T12:50:54.481Z,29.83
2018-05-14T12:55:56.262Z,23.10
2018-05-14T13:00:57.857Z,25.50
2018-05-14T13:05:59.620Z,24.37
2018-05-14T13:11:01.264Z,28.30
2018-05-14T13:16:03.610Z,22.60
2018-05-14T13:21:06.365Z,23.17
2018-05-14T13:26:08.222Z,26.30
2018-05-14T13:31:09.776Z,30.87
2018-05-14T13:36:12.290Z,24.07
2018-05-14T13:41:13.835Z,21.50
2018-05-14T13:46:15.635Z,22.00
2018-05-14T13:51:17.152Z,25.40
2018-05-14T13:56:18.978Z,28.43
2018-05-14T14:01:20.748Z,30.83
2018-05-14T14:06:22.401Z,33.40
2018-05-14T14:11:24.866Z,20.90
2018-05-14T14:16:26.542Z,17.73
2018-05-14T14:21:28.269Z,25.20
2018-05-14T14:26:29.840Z,21.17
2018-05-14T14:31:31.691Z,29.93
2018-05-14T14:36:33.308Z,115.77
2018-05-14T14:41:34.898Z,30.67
2018-05-14T14:46:36.568Z,24.37
2018-05-14T14:51:38.239Z,25.17
2018-05-14T14:56:39.907Z,26.93
2018-05-14T15:01:41.673Z,25.27
2018-05-14T15:06:43.247Z,24.83
2018-05-14T15:11:44.832Z,30.00
2018-05-14T15:16:46.402Z,30.10
2018-05-14T15:21:48.040Z,30.37
2018-05-14T15:26:49.766Z,19.00
2018-05-14T15:31:52.085Z,20.10
2018-05-14T15:36:53.772Z,17.23
2018-05-14T15:41:55.497Z,15.63
2018-05-14T15:46:57.790Z,11.03
2018-05-14T15:51:59.384Z,11.80
2018-05-14T15:57:01.079Z,15.17
2018-05-14T16:02:02.871Z,14.00
2018-05-14T16:07:04.597Z,12.50
2018-05-14T16:12:06.136Z,12.40
2018-05-14T16:17:08.634Z,16.30
2018-05-14T16:22:10.220Z,20.57
2018-05-14T16:27:11.976Z,21.60
2018-05-14T16:32:13.776Z,18.97
2018-05-14T16:37:15.519Z,13.90
2018-05-14T16:42:17.319Z,14.87
2018-05-14T16:47:19.205Z,16.33
2018-05-14T16:52:20.801Z,15.27
2018-05-14T16:57:22.574Z,19.43
2018-05-14T17:02:24.804Z,18.30
2018-05-14T17:07:26.501Z,17.90
2018-05-14T17:12:28.244Z,23.40
2018-05-14T17:17:29.873Z,19.33
2018-05-14T17:22:31.721Z,25.83
2018-05-14T17:27:33.334Z,16.57
2018-05-14T17:32:35.023Z,19.40
2018-05-14T17:37:37.313Z,16.90
2018-05-14T17:42:38.929Z,17.63
2018-05-14T17:47:40.551Z,16.30
2018-05-14T17:52:42.305Z,21.30
2018-05-14T17:57:44.095Z,19.87
2018-05-14T18:02:46.720Z,24.53
2018-05-14T18:07:48.332Z,21.20
2018-05-14T18:12:49.916Z,16.83
2018-05-14T18:17:52.319Z,17.80
2018-05-14T18:22:55.205Z,13.33
2018-05-14T18:28:00.659Z,15.10
2018-05-14T18:33:03.227Z,16.27
2018-05-14T18:38:04.955Z,13.80
2018-05-14T18:43:06.539Z,14.67
2018-05-14T18:48:08.196Z,9.23
2018-05-14T18:53:09.957Z,12.77
2018-05-14T18:58:11.715Z,12.90
2018-05-14T19:03:17.637Z,10.30
2018-05-14T19:08:19.378Z,9.20
2018-05-14T19:13:21.189Z,6.47
2018-05-14T19:18:22.744Z,16.80
2018-05-14T19:23:32.095Z,10.83
2018-05-14T19:28:39.779Z,13.50
2018-05-14T19:33:47.713Z,10.93
2018-05-14T19:38:49.214Z,7.70
2018-05-14T19:43:50.802Z,12.13
2018-05-14T19:48:52.455Z,14.90
2018-05-14T19:53:54.160Z,18.13
2018-05-14T19:58:56.703Z,20.23
2018-05-14T20:03:59.068Z,19.20
2018-05-14T20:09:00.664Z,9.63
2018-05-14T20:14:02.269Z,10.60
2018-05-14T20:19:04.764Z,12.37
2018-05-14T20:24:07.170Z,16.77
2018-05-14T20:29:09.659Z,11.97
2018-05-14T20:34:18.800Z,11.97
2018-05-14T20:39:21.258Z,11.77
2018-05-14T20:44:22.831Z,10.63
2018-05-14T20:49:24.442Z,13.53
2018-05-14T20:54:25.983Z,15.43
2018-05-14T20:59:27.606Z,8.80
2018-05-14T21:04:29.461Z,10.97
2018-05-14T21:09:31.136Z,11.80
2018-05-14T21:14:32.875Z,10.67
2018-05-14T21:19:35.203Z,7.93
2018-05-14T21:24:36.767Z,8.47
2018-05-14T21:29:38.481Z,8.80
2018-05-14T21:34:40.204Z,12.20
2018-05-14T21:39:42.418Z,12.53
2018-05-14T21:44:44.029Z,9.50
2018-05-14T21:49:46.640Z,8.70
2018-05-14T21:54:48.156Z,10.50
2018-05-14T21:59:49.682Z,10.70
2018-05-14T22:04:51.721Z,8.17
2018-05-14T22:09:53.405Z,11.60
2018-05-14T22:14:54.954Z,9.77
2018-05-14T22:19:56.787Z,11.13
2018-05-14T22:24:58.548Z,7.77
2018-05-14T22:30:00.220Z,8.70
2018-05-14T22:35:01.937Z,8.03
2018-05-14T22:40:03.828Z,7.63
2018-05-14T22:45:05.394Z,8.00
2018-05-14T22:50:06.956Z,10.80
2018-05-14T22:55:08.553Z,14.80
2018-05-14T23:00:10.937Z,8.90
2018-05-14T23:05:13.412Z,9.90
2018-05-14T23:10:15.240Z,15.50
2018-05-14T23:15:16.835Z,9.23
2018-05-14T23:20:18.638Z,9.80
2018-05-14T23:25:20.342Z,12.27
2018-05-14T23:30:22.102Z,19.10
2018-05-14T23:35:23.939Z,11.77
2018-05-14T23:40:26.585Z,14.00
2018-05-14T23:45:28.343Z,11.67
2018-05-14T23:50:30.602Z,9.37
2018-05-14T23:55:32.389Z,12.63
